Time;durP1;ratioP1;P1;durP2;ratioP2;P2;SDS_P1;SDS_P2;PMS_P1;PMS_P2;Temp;Humidity;BMP_temperature;BMP_pressure;BME280_temperature;BME280_humidity;BME280_pressure;Samples;Min_cycle;Max_cycle;Signal;HPM_P1;HPM_P2
2022/09/24 00:01:37;;;;;;;9.13;5.95;;;;;;;2.28;100.00;95307.34;5104710;28;20047;-80
2022/09/24 00:04:08;;;;;;;10.77;6.72;;;;;;;2.38;100.00;95320.81;5083706;28;20096;-79
2022/09/24 00:06:41;;;;;;;14.88;6.28;;;;;;;2.44;100.00;95330.41;5102863;28;20435;-80
2022/09/24 00:09:11;;;;;;;7.30;5.43;;;;;;;2.31;100.00;95303.66;5101748;28;20122;-79
2022/09/24 00:11:39;;;;;;;9.43;5.45;;;;;;;2.43;100.00;95323.69;5083260;28;20050;-79
2022/09/24 00:14:06;;;;;;;9.98;5.22;;;;;;;2.36;100.00;95327.91;5082060;28;20547;-80
2022/09/24 00:16:34;;;;;;;9.10;6.13;;;;;;;2.30;100.00;95318.28;5102240;28;20608;-79
2022/09/24 00:19:02;;;;;;;14.18;6.63;;;;;;;2.16;100.00;95300.97;5099715;28;20578;-80
2022/09/24 00:21:34;;;;;;;10.60;6.00;;;;;;;2.03;100.00;95292.03;5087282;28;20119;-80
2022/09/24 00:24:05;;;;;;;11.85;5.88;;;;;;;2.13;100.00;95314.97;5100967;28;20439;-80
2022/09/24 00:26:50;;;;;;;13.50;5.95;;;;;;;1.96;100.00;95285.94;5082450;28;20067;-80
2022/09/24 00:29:23;;;;;;;7.90;4.95;;;;;;;2.09;100.00;95321.41;5067879;28;20549;-80
2022/09/24 00:31:52;;;;;;;7.22;4.85;;;;;;;2.03;100.00;95325.44;5108441;27;20071;-79
2022/09/24 00:34:20;;;;;;;8.27;5.40;;;;;;;1.90;100.00;95312.31;5102188;27;20030;-80
2022/09/24 00:36:47;;;;;;;9.18;5.78;;;;;;;1.66;100.00;95280.59;5087423;28;20052;-80
2022/09/24 00:39:15;;;;;;;8.43;5.45;;;;;;;1.81;100.00;95318.44;5084770;28;20042;-80
2022/09/24 00:41:46;;;;;;;9.82;5.78;;;;;;;1.73;100.00;95306.44;5103388;27;20513;-80
2022/09/24 00:44:37;;;;;;;10.25;6.05;;;;;;;1.79;100.00;95325.50;5070463;28;20594;-81
2022/09/24 00:47:04;;;;;;;10.20;6.57;;;;;;;1.74;100.00;95322.63;5083253;27;20040;-80
2022/09/24 00:49:32;;;;;;;10.90;6.38;;;;;;;1.78;100.00;95318.75;5085559;28;20101;-80
2022/09/24 00:51:59;;;;;;;9.75;5.70;;;;;;;1.85;100.00;95324.84;5106615;27;20055;-80
2022/09/24 00:54:28;;;;;;;8.90;5.68;;;;;;;1.87;100.00;95304.94;5082458;27;20403;-80
2022/09/24 00:56:57;;;;;;;9.82;5.88;;;;;;;1.97;100.00;95310.69;5120227;27;20085;-80
2022/09/24 00:59:27;;;;;;;9.15;5.10;;;;;;;1.97;100.00;95302.97;5105445;27;20043;-80
2022/09/24 01:01:57;;;;;;;8.18;5.63;;;;;;;1.77;100.00;95291.50;5087264;28;20120;-81
2022/09/24 01:04:27;;;;;;;9.55;5.43;;;;;;;1.81;100.00;95303.03;5103957;27;20040;-80
2022/09/24 01:06:55;;;;;;;8.18;5.90;;;;;;;1.61;100.00;95287.97;5071625;28;20059;-80
2022/09/24 01:09:25;;;;;;;11.32;6.80;;;;;;;1.75;100.00;95303.66;5085691;28;20047;-80
2022/09/24 01:12:27;;;;;;;8.25;5.72;;;;;;;1.70;100.00;95294.69;5085498;28;20088;-80
2022/09/24 01:15:10;;;;;;;9.18;5.50;;;;;;;1.75;100.00;95298.53;5102837;28;20040;-80
2022/09/24 01:18:02;;;;;;;12.65;5.65;;;;;;;1.71;100.00;95293.75;5083117;27;20062;-80
2022/09/24 01:20:45;;;;;;;7.82;4.70;;;;;;;1.69;100.00;95290.53;5098039;27;20726;-79
2022/09/24 01:23:48;;;;;;;11.50;6.75;;;;;;;1.63;100.00;95291.19;5084967;28;20456;-79
2022/09/24 01:26:50;;;;;;;7.80;5.28;;;;;;;1.52;100.00;95301.81;5102871;27;20107;-79
2022/09/24 01:29:31;;;;;;;9.57;5.88;;;;;;;1.51;100.00;95301.00;5092854;27;20580;-80
2022/09/24 01:32:22;;;;;;;10.57;5.93;;;;;;;1.53;100.00;95306.78;5084452;27;20079;-80
2022/09/24 01:35:08;;;;;;;8.55;6.05;;;;;;;1.45;100.00;95293.16;5086054;28;20032;-80
2022/09/24 01:37:39;;;;;;;9.93;6.00;;;;;;;1.59;100.00;95305.31;5084297;28;20043;-79
2022/09/24 01:40:10;;;;;;;9.60;5.88;;;;;;;1.54;100.00;95302.44;5068802;28;20459;-78
2022/09/24 01:42:43;;;;;;;9.77;5.57;;;;;;;1.59;100.00;95301.97;5069947;27;20365;-80
2022/09/24 01:45:12;;;;;;;8.50;5.00;;;;;;;1.65;100.00;95314.94;5084782;28;20048;-79
2022/09/24 01:47:40;;;;;;;6.93;4.75;;;;;;;1.56;100.00;95321.03;5102570;28;20895;-79
2022/09/24 01:50:10;;;;;;;8.52;5.75;;;;;;;1.50;100.00;95321.69;5073277;28;20071;-79
2022/09/24 01:53:01;;;;;;;9.55;6.22;;;;;;;1.50;100.00;95316.56;5103368;27;20100;-79
2022/09/24 01:55:34;;;;;;;8.75;6.25;;;;;;;1.42;100.00;95303.72;5087806;28;20043;-80
2022/09/24 01:58:07;;;;;;;8.30;5.53;;;;;;;1.46;100.00;95315.28;5087795;28;20043;-80
2022/09/24 02:00:39;;;;;;;8.93;5.65;;;;;;;1.32;100.00;95309.84;5087126;28;20529;-80
2022/09/24 02:03:17;;;;;;;11.30;6.55;;;;;;;1.36;100.00;95314.66;5074307;28;20131;-80
2022/09/24 02:05:49;;;;;;;7.43;5.30;;;;;;;1.28;100.00;95313.69;5072611;28;20039;-80
2022/09/24 02:08:21;;;;;;;8.40;5.45;;;;;;;1.24;100.00;95316.72;5063757;28;20059;-80
2022/09/24 02:11:01;;;;;;;12.02;6.40;;;;;;;1.14;100.00;95302.31;5071442;28;20045;-80
2022/09/24 02:13:39;;;;;;;15.48;6.45;;;;;;;1.13;100.00;95299.91;5071489;28;20481;-81
2022/09/24 02:16:09;;;;;;;10.55;6.78;;;;;;;1.20;100.00;95323.94;5069273;28;20422;-81
2022/09/24 02:18:44;;;;;;;10.00;6.53;;;;;;;1.19;100.00;95324.94;5080651;28;20041;-80
2022/09/24 02:21:15;;;;;;;10.65;6.78;;;;;;;1.12;100.00;95332.47;5064535;28;20048;-80
2022/09/24 02:23:48;;;;;;;11.15;5.72;;;;;;;1.07;100.00;95333.91;5050294;28;20508;-81
2022/09/24 02:26:15;;;;;;;11.45;5.95;;;;;;;0.79;100.00;95308.53;5062056;28;20047;-81
2022/09/24 02:28:42;;;;;;;8.35;6.53;;;;;;;0.87;100.00;95331.63;5066677;28;20048;-80
2022/09/24 02:31:26;;;;;;;8.57;6.32;;;;;;;0.83;100.00;95335.47;5062077;28;20045;-81
2022/09/24 02:36:42;;;;;;;10.90;6.55;;;;;;;0.93;100.00;95341.25;5064311;28;20071;-80
2022/09/24 02:39:09;;;;;;;20.23;8.68;;;;;;;0.95;100.00;95334.22;5046387;28;20368;-80
2022/09/24 02:41:37;;;;;;;12.45;8.48;;;;;;;1.13;100.00;95356.34;5066406;28;20044;-80
2022/09/24 02:44:04;;;;;;;8.57;5.90;;;;;;;1.13;100.00;95340.94;5062770;28;20044;-80
2022/09/24 02:46:31;;;;;;;9.02;6.50;;;;;;;1.14;100.00;95337.44;5061547;28;20044;-80
2022/09/24 02:48:58;;;;;;;8.63;6.25;;;;;;;1.11;100.00;95358.25;5044940;28;20044;-80
2022/09/24 02:51:26;;;;;;;9.02;6.13;;;;;;;1.07;100.00;95354.44;5061967;28;20040;-80
2022/09/24 02:53:53;;;;;;;9.18;5.65;;;;;;;0.98;100.00;95342.56;5072517;28;20517;-80
2022/09/24 02:56:20;;;;;;;10.38;5.60;;;;;;;1.11;100.00;95363.41;5059579;28;20040;-80
2022/09/24 02:58:47;;;;;;;8.63;5.25;;;;;;;0.95;100.00;95339.34;5075371;28;20052;-80
2022/09/24 03:01:14;;;;;;;10.18;6.03;;;;;;;0.84;100.00;95337.06;5076634;28;20036;-80
2022/09/24 03:03:40;;;;;;;8.48;5.20;;;;;;;1.00;100.00;95376.53;5056705;28;20310;-80
2022/09/24 03:06:09;;;;;;;10.38;4.88;;;;;;;0.95;100.00;95370.13;5079086;28;20489;-80
2022/09/24 03:08:36;;;;;;;8.70;5.55;;;;;;;0.87;100.00;95353.91;5074323;28;20120;-80
2022/09/24 03:11:03;;;;;;;7.63;4.63;;;;;;;0.76;100.00;95344.75;5058249;28;21168;-81
2022/09/24 03:13:30;;;;;;;10.38;6.03;;;;;;;0.84;100.00;95357.59;5077149;28;20043;-81
2022/09/24 03:15:57;;;;;;;10.45;6.07;;;;;;;0.70;100.00;95340.25;5073373;28;20071;-80
2022/09/24 03:18:24;;;;;;;10.68;5.30;;;;;;;0.71;100.00;95357.25;5059972;28;20349;-81
2022/09/24 03:21:05;;;;;;;7.78;5.43;;;;;;;0.51;100.00;95347.25;5076194;28;20052;-81
2022/09/24 03:23:32;;;;;;;10.77;5.88;;;;;;;0.61;100.00;95369.38;5077010;28;20410;-80
2022/09/24 03:26:00;;;;;;;13.93;5.88;;;;;;;0.55;100.00;95363.91;5077042;28;20040;-80
2022/09/24 03:28:27;;;;;;;14.90;5.78;;;;;;;0.55;100.00;95368.25;5072343;28;20503;-80
2022/09/24 03:31:01;;;;;;;11.70;5.85;;;;;;;0.55;100.00;95369.03;5076615;28;20068;-80
2022/09/24 03:33:35;;;;;;;11.63;6.13;;;;;;;0.52;100.00;95364.25;5073477;28;20048;-80
2022/09/24 03:36:06;;;;;;;8.10;5.13;;;;;;;0.38;100.00;95352.03;5060121;28;20497;-80
2022/09/24 03:38:34;;;;;;;10.10;5.68;;;;;;;0.44;100.00;95364.19;5077013;28;20139;-81
2022/09/24 03:41:02;;;;;;;9.70;5.97;;;;;;;0.37;100.00;95361.44;5077896;28;20033;-80
2022/09/24 03:43:30;;;;;;;9.95;5.93;;;;;;;0.40;100.00;95362.91;5074968;28;20070;-80
2022/09/24 03:45:57;;;;;;;9.65;5.78;;;;;;;0.50;100.00;95371.25;5058369;28;20483;-80
2022/09/24 03:48:25;;;;;;;10.95;5.43;;;;;;;0.43;100.00;95375.41;5077212;28;20105;-80
2022/09/24 03:50:53;;;;;;;9.38;6.35;;;;;;;0.46;100.00;95369.97;5075033;28;20097;-80
2022/09/24 03:53:20;;;;;;;9.75;5.88;;;;;;;0.42;100.00;95373.81;5067481;28;20492;-80
2022/09/24 03:55:54;;;;;;;8.93;6.43;;;;;;;0.22;100.00;95346.81;5071974;28;20044;-81
2022/09/24 03:58:23;;;;;;;9.10;5.60;;;;;;;0.43;100.00;95375.41;5056083;28;20040;-80
2022/09/24 04:00:52;;;;;;;9.30;6.20;;;;;;;0.45;100.00;95383.75;5068323;28;20036;-81
2022/09/24 04:03:20;;;;;;;10.98;5.63;;;;;;;0.33;100.00;95361.94;5074452;28;20318;-80
2022/09/24 04:05:50;;;;;;;10.73;6.55;;;;;;;0.47;100.00;95376.72;5082835;28;20044;-80
2022/09/24 04:08:18;;;;;;;11.52;6.80;;;;;;;0.53;100.00;95381.22;5066208;28;20044;-81
2022/09/24 04:10:46;;;;;;;9.73;6.72;;;;;;;0.50;100.00;95386.63;5082225;28;20147;-80
2022/09/24 04:13:14;;;;;;;11.73;6.63;;;;;;;0.27;100.00;95370.22;5107007;27;20445;-81
2022/09/24 04:15:42;;;;;;;10.63;6.85;;;;;;;0.37;100.00;95386.28;5082921;28;20071;-80
2022/09/24 04:18:09;;;;;;;13.32;6.22;;;;;;;0.42;100.00;95396.88;5082929;28;20052;-80
2022/09/24 04:20:37;;;;;;;11.63;6.53;;;;;;;0.33;100.00;95385.00;5065658;28;20044;-80
2022/09/24 04:23:04;;;;;;;10.40;5.93;;;;;;;0.30;100.00;95386.09;5082908;28;20048;-80
2022/09/24 04:25:32;;;;;;;12.07;7.05;;;;;;;0.38;100.00;95404.06;5082705;28;20036;-80
2022/09/24 04:28:02;;;;;;;12.23;7.40;;;;;;;0.42;100.00;95407.13;5108688;27;20118;-80
2022/09/24 04:30:31;;;;;;;11.85;6.35;;;;;;;0.40;100.00;95401.34;5091902;27;20135;-79
2022/09/24 04:33:01;;;;;;;13.40;7.10;;;;;;;0.36;100.00;95400.03;5083855;28;20072;-80
2022/09/24 04:35:30;;;;;;;11.95;6.50;;;;;;;0.33;100.00;95385.00;5082570;28;20032;-79
2022/09/24 04:37:59;;;;;;;11.20;7.13;;;;;;;0.53;100.00;95401.72;5083610;28;20056;-79
2022/09/24 04:40:26;;;;;;;10.43;7.00;;;;;;;0.46;100.00;95387.91;5086174;28;20044;-80
2022/09/24 04:42:53;;;;;;;12.15;6.20;;;;;;;0.51;100.00;95393.38;5093184;28;20044;-79
2022/09/24 04:45:20;;;;;;;12.88;7.25;;;;;;;0.65;100.00;95417.63;5084512;28;20051;-79
2022/09/24 04:47:52;;;;;;;13.20;7.43;;;;;;;0.65;100.00;95398.88;5084073;28;20094;-79
2022/09/24 04:50:20;;;;;;;13.88;8.05;;;;;;;0.77;100.00;95407.88;5082580;28;20390;-76
2022/09/24 04:52:52;;;;;;;13.27;8.15;;;;;;;0.79;100.00;95397.47;5083108;28;20055;-79
2022/09/24 04:55:20;;;;;;;15.95;8.43;;;;;;;0.91;100.00;95409.84;5077270;28;20078;-77
2022/09/24 04:57:48;;;;;;;19.25;7.43;;;;;;;1.11;100.00;95409.56;5079839;28;20048;-71
2022/09/24 05:00:17;;;;;;;19.13;10.50;;;;;;;1.24;100.00;95417.63;5082133;28;20117;-69
2022/09/24 05:02:44;;;;;;;16.10;9.60;;;;;;;1.34;100.00;95418.28;5082735;28;20154;-70
2022/09/24 05:05:12;;;;;;;17.23;9.75;;;;;;;1.47;100.00;95424.69;5085519;28;20036;-70
2022/09/24 05:07:40;;;;;;;12.48;6.75;;;;;;;1.63;100.00;95419.56;5088463;28;20036;-69
2022/09/24 05:10:08;;;;;;;15.30;8.73;;;;;;;1.74;100.00;95415.09;5088775;28;20051;-69
2022/09/24 05:12:35;;;;;;;13.93;8.93;;;;;;;1.55;100.00;95378.50;5087072;28;20129;-69
2022/09/24 05:15:03;;;;;;;16.95;9.15;;;;;;;1.95;100.00;95415.38;5085904;28;20063;-69
2022/09/24 05:17:30;;;;;;;17.02;9.40;;;;;;;2.10;100.00;95421.44;5083246;28;20432;-69
2022/09/24 05:19:58;;;;;;;12.98;8.38;;;;;;;2.22;100.00;95429.63;5085285;28;20048;-70
2022/09/24 05:22:26;;;;;;;13.60;7.72;;;;;;;2.35;100.00;95423.19;5084050;28;20048;-70
2022/09/24 05:24:53;;;;;;;16.63;7.25;;;;;;;2.43;100.00;95405.13;5086012;28;20077;-69
2022/09/24 05:27:22;;;;;;;10.60;7.85;;;;;;;2.59;100.00;95409.44;5082650;28;20119;-70
2022/09/24 05:29:49;;;;;;;15.45;10.77;;;;;;;2.76;100.00;95410.97;5085956;28;20541;-69
2022/09/24 05:32:19;;;;;;;18.63;9.68;;;;;;;2.96;100.00;95426.00;5083090;28;20032;-70
2022/09/24 05:34:46;;;;;;;14.43;7.90;;;;;;;3.12;100.00;95425.13;5084221;28;20135;-70
2022/09/24 05:37:14;;;;;;;11.25;7.05;;;;;;;3.30;100.00;95422.28;5083463;28;20113;-70
2022/09/24 05:39:41;;;;;;;10.52;6.90;;;;;;;3.50;100.00;95423.41;5082867;28;20504;-70
2022/09/24 05:42:09;;;;;;;13.85;8.27;;;;;;;3.72;100.00;95431.31;5084036;28;20039;-70
2022/09/24 05:44:36;;;;;;;12.23;8.20;;;;;;;3.79;100.00;95411.59;5082874;28;20040;-69
2022/09/24 05:47:03;;;;;;;10.15;7.88;;;;;;;4.05;100.00;95436.97;5080961;28;20047;-69
2022/09/24 05:49:30;;;;;;;14.23;8.15;;;;;;;4.24;100.00;95440.84;5087866;28;20078;-70
2022/09/24 05:51:57;;;;;;;12.80;8.05;;;;;;;4.33;100.00;95429.47;5087654;28;20049;-71
2022/09/24 05:54:24;;;;;;;11.35;8.18;;;;;;;4.58;100.00;95431.78;5083227;28;20540;-71
2022/09/24 05:56:51;;;;;;;10.25;7.22;;;;;;;4.74;100.00;95436.75;5084517;28;20043;-70
2022/09/24 05:59:18;;;;;;;12.50;8.40;;;;;;;4.95;100.00;95436.03;5084538;28;20139;-70
2022/09/24 06:01:45;;;;;;;12.50;8.60;;;;;;;5.10;100.00;95425.66;5084076;28;20051;-70
2022/09/24 06:04:12;;;;;;;16.10;8.57;;;;;;;5.38;100.00;95443.03;5102839;27;20052;-70
2022/09/24 06:06:39;;;;;;;11.07;8.10;;;;;;;5.45;100.00;95428.41;5102334;28;20036;-70
2022/09/24 06:09:08;;;;;;;10.15;7.53;;;;;;;5.63;100.00;95434.94;5104193;27;20120;-70
2022/09/24 06:11:35;;;;;;;11.90;8.45;;;;;;;5.91;100.00;95447.91;5102534;27;20055;-69
2022/09/24 06:14:07;;;;;;;12.82;7.40;;;;;;;6.05;100.00;95448.84;5083961;28;20589;-71
2022/09/24 06:16:35;;;;;;;10.20;7.45;;;;;;;6.20;100.00;95452.16;5101922;28;20845;-70
2022/09/24 06:19:02;;;;;;;13.30;7.97;;;;;;;6.37;100.00;95462.22;5082625;28;20073;-71
2022/09/24 06:21:29;;;;;;;9.93;7.72;;;;;;;6.48;100.00;95452.16;5083368;28;20483;-70
2022/09/24 06:23:55;;;;;;;12.40;7.82;;;;;;;6.52;100.00;95460.34;5101205;28;20047;-70
2022/09/24 06:26:25;;;;;;;9.52;7.30;;;;;;;6.59;100.00;95453.41;5100739;28;20131;-70
2022/09/24 06:28:51;;;;;;;11.02;7.25;;;;;;;6.74;100.00;95468.03;5101535;28;20054;-70
2022/09/24 06:31:19;;;;;;;11.38;7.20;;;;;;;6.84;100.00;95465.88;5100807;28;20035;-70
2022/09/24 06:33:45;;;;;;;10.77;7.30;;;;;;;6.98;100.00;95454.59;5101140;28;20178;-71
2022/09/24 06:36:13;;;;;;;11.18;7.82;;;;;;;6.98;100.00;95441.63;5100326;28;20092;-71
2022/09/24 06:38:40;;;;;;;11.20;7.10;;;;;;;7.15;100.00;95443.88;5102197;27;20138;-71
2022/09/24 06:41:08;;;;;;;10.05;6.82;;;;;;;7.31;100.00;95443.56;5082276;28;20092;-70
2022/09/24 06:43:36;;;;;;;12.07;7.25;;;;;;;7.58;100.00;95459.16;5101008;28;21106;-71
2022/09/24 06:46:03;;;;;;;9.27;6.88;;;;;;;7.72;100.00;95442.63;5101213;28;20058;-70
2022/09/24 06:48:30;;;;;;;10.50;7.45;;;;;;;7.97;100.00;95465.41;5100343;28;20032;-70
2022/09/24 06:50:58;;;;;;;15.75;7.43;;;;;;;8.12;100.00;95466.03;5099987;28;20043;-70
2022/09/24 06:53:25;;;;;;;9.23;6.75;;;;;;;8.09;100.00;95455.25;5101025;28;20465;-70
2022/09/24 06:55:57;;;;;;;11.52;6.07;;;;;;;8.23;100.00;95460.22;5079908;28;20116;-69
2022/09/24 06:58:25;;;;;;;14.52;6.68;;;;;;;8.29;100.00;95450.84;5082072;28;20429;-71
2022/09/24 07:00:54;;;;;;;8.85;6.40;;;;;;;8.37;100.00;95448.06;5104184;27;22033;-75
2022/09/24 07:03:21;;;;;;;9.82;6.30;;;;;;;8.46;100.00;95446.03;5070079;27;20047;-73
2022/09/24 07:05:48;;;;;;;7.53;6.13;;;;;;;8.70;100.00;95456.81;5070821;27;20074;-72
2022/09/24 07:08:16;;;;;;;9.43;6.25;;;;;;;8.81;100.00;95443.19;5106007;27;20050;-72
2022/09/24 07:10:51;;;;;;;9.75;6.15;;;;;;;8.95;100.00;95439.56;5082352;28;20036;-74
2022/09/24 07:13:20;;;;;;;10.82;6.88;;;;;;;8.94;100.00;95443.13;5082869;28;20181;-85
2022/09/24 07:15:49;;;;;;;10.80;6.75;;;;;;;8.90;100.00;95436.75;5078422;27;20493;-85
2022/09/24 07:18:16;;;;;;;12.70;7.30;;;;;;;8.97;100.00;95432.34;5076959;28;20044;-86
2022/09/24 07:20:50;;;;;;;9.38;6.03;;;;;;;9.23;100.00;95461.81;5083844;28;20046;-73
2022/09/24 07:23:17;;;;;;;9.23;6.75;;;;;;;9.32;100.00;95452.78;5083115;28;20475;-73
2022/09/24 07:25:44;;;;;;;9.10;6.57;;;;;;;9.54;100.00;95447.28;5081596;28;20044;-74
2022/09/24 07:28:12;;;;;;;7.63;5.65;;;;;;;9.54;100.00;95436.88;5099027;28;20040;-73
2022/09/24 07:30:39;;;;;;;8.32;5.97;;;;;;;9.90;100.00;95456.25;5101292;27;20520;-72
2022/09/24 07:33:07;;;;;;;8.60;6.85;;;;;;;9.97;100.00;95446.59;5100382;28;20424;-72
2022/09/24 07:35:37;;;;;;;8.50;6.13;;;;;;;10.11;99.26;95452.50;5101073;28;20509;-72
2022/09/24 07:38:07;;;;;;;8.75;6.68;;;;;;;10.09;99.76;95459.72;5099336;28;20619;-73
2022/09/24 07:40:34;;;;;;;11.18;6.47;;;;;;;10.14;99.61;95458.09;5100306;28;20054;-73
2022/09/24 07:43:01;;;;;;;10.50;7.18;;;;;;;10.27;99.34;95445.97;5063527;28;20046;-73
2022/09/24 07:45:29;;;;;;;8.98;6.22;;;;;;;10.38;97.94;95447.13;5080005;28;20705;-73
2022/09/24 07:48:00;;;;;;;8.43;6.60;;;;;;;10.67;96.43;95459.44;5099716;28;20035;-73
2022/09/24 07:50:29;;;;;;;7.95;6.15;;;;;;;10.65;96.99;95458.06;5083881;28;20134;-73
2022/09/24 07:52:56;;;;;;;10.50;7.47;;;;;;;10.79;96.69;95454.31;5101518;28;20052;-73
2022/09/24 07:55:24;;;;;;;8.40;5.80;;;;;;;11.03;95.01;95459.69;5111051;27;20568;-73
2022/09/24 07:57:54;;;;;;;6.65;5.05;;;;;;;11.09;90.18;95448.38;5083104;28;20055;-73
2022/09/24 08:00:23;;;;;;;9.75;5.30;;;;;;;11.31;86.51;95445.31;5106516;28;20096;-73
2022/09/24 08:02:55;;;;;;;9.93;5.05;;;;;;;11.44;87.02;95452.97;5054879;28;20319;-73
2022/09/24 08:05:22;;;;;;;9.60;5.78;;;;;;;11.52;85.10;95426.56;5063299;28;20445;-73
2022/09/24 08:07:59;;;;;;;9.05;5.85;;;;;;;11.77;85.27;95441.28;5063800;28;20134;-73
2022/09/24 08:10:27;;;;;;;7.85;5.57;;;;;;;11.90;83.67;95416.81;5062721;28;20072;-73
2022/09/24 08:12:56;;;;;;;11.05;5.70;;;;;;;12.13;81.82;95452.63;5049742;28;20052;-73
2022/09/24 08:15:23;;;;;;;8.48;5.22;;;;;;;12.20;81.51;95440.25;5065589;28;20052;-73
2022/09/24 08:17:50;;;;;;;7.28;5.43;;;;;;;12.24;74.50;95438.78;5065179;28;20041;-73
2022/09/24 08:20:18;;;;;;;8.18;5.57;;;;;;;12.32;75.60;95451.53;5060974;28;20517;-73
2022/09/24 08:22:45;;;;;;;9.05;5.75;;;;;;;12.23;74.29;95427.56;5042760;28;20396;-73
2022/09/24 08:25:11;;;;;;;9.38;6.55;;;;;;;12.29;74.30;95443.34;5041692;28;20415;-72
2022/09/24 08:27:38;;;;;;;7.68;5.15;;;;;;;12.36;73.52;95434.38;5042465;28;20504;-73
2022/09/24 08:30:06;;;;;;;17.33;5.35;;;;;;;12.61;73.05;95441.19;5059745;28;20131;-73
2022/09/24 08:32:33;;;;;;;8.35;5.43;;;;;;;12.71;71.47;95438.81;5058259;28;20436;-73
2022/09/24 08:35:00;;;;;;;6.30;4.45;;;;;;;12.89;66.88;95430.03;5059179;28;20482;-73
2022/09/24 08:37:28;;;;;;;7.63;4.75;;;;;;;13.06;65.55;95430.09;5057052;28;20304;-73
2022/09/24 08:39:54;;;;;;;7.88;4.93;;;;;;;13.25;62.77;95445.63;5058563;28;20068;-72
2022/09/24 08:42:33;;;;;;;6.25;4.88;;;;;;;13.33;63.75;95434.81;5057061;28;20045;-73
2022/09/24 08:47:53;;;;;;;9.13;5.63;;;;;;;13.64;63.14;95440.63;5058826;28;20041;-73
2022/09/24 08:50:23;;;;;;;7.90;3.53;;;;;;;13.72;59.91;95438.41;5062395;28;20433;-73
2022/09/24 08:53:05;;;;;;;10.60;3.92;;;;;;;13.83;60.81;95439.38;5061493;28;20205;-73
2022/09/24 08:55:50;;;;;;;7.63;4.72;;;;;;;13.91;58.48;95425.88;5059483;28;20032;-73
2022/09/24 08:58:30;;;;;;;5.72;4.50;;;;;;;14.05;59.44;95441.31;5061788;28;20117;-73
2022/09/24 09:01:19;;;;;;;8.48;5.38;;;;;;;14.08;58.94;95427.72;5062140;28;20563;-73
2022/09/24 09:03:55;;;;;;;6.25;4.32;;;;;;;14.19;58.75;95426.88;5059696;28;20514;-73
2022/09/24 09:06:55;;;;;;;7.80;4.10;;;;;;;14.50;56.77;95432.56;5059930;28;20032;-73
2022/09/24 09:09:25;;;;;;;5.63;4.13;;;;;;;14.70;56.38;95425.00;5059514;28;20442;-72
2022/09/24 09:12:00;;;;;;;8.30;4.63;;;;;;;14.69;56.76;95423.44;5060494;28;20170;-73
2022/09/24 09:14:52;;;;;;;7.80;4.28;;;;;;;14.79;56.38;95419.34;5059663;28;20106;-75
2022/09/24 09:17:25;;;;;;;13.82;4.88;;;;;;;14.93;56.24;95420.59;5060405;28;20036;-73
2022/09/24 09:19:56;;;;;;;6.57;4.50;;;;;;;14.95;56.08;95421.13;5059488;28;20071;-69
2022/09/24 09:22:32;;;;;;;9.13;5.18;;;;;;;14.98;54.40;95420.66;5060630;28;20094;-72
2022/09/24 09:25:23;;;;;;;9.68;5.20;;;;;;;15.06;54.32;95420.19;5059600;28;20839;-67
2022/09/24 09:27:56;;;;;;;10.75;6.07;;;;;;;14.92;55.36;95398.00;5059586;28;20080;-68
2022/09/24 09:30:23;;;;;;;9.13;5.80;;;;;;;15.24;54.92;95418.31;5043708;28;20060;-72
2022/09/24 09:33:28;;;;;;;8.90;5.03;;;;;;;15.41;52.77;95416.41;5061947;28;20512;-72
2022/09/24 09:36:04;;;;;;;;;;;;;;;15.58;52.33;95431.28;5016775;28;20666;-73
2022/09/24 09:39:25;;;;;;;7.75;5.63;;;;;;;15.62;50.37;95411.34;5059849;28;19924;-73
2022/09/24 09:42:20;;;;;;;5.60;4.10;;;;;;;15.79;51.05;95401.56;5001683;28;20108;-73
2022/09/24 09:44:48;;;;;;;6.90;4.82;;;;;;;15.94;50.61;95392.25;5061426;28;20047;-74
2022/09/24 09:47:28;;;;;;;8.20;4.18;;;;;;;16.13;48.38;95390.78;5064975;28;20256;-72
2022/09/24 09:50:04;;;;;;;6.07;4.03;;;;;;;16.30;47.67;95400.38;5069916;28;20044;-68
2022/09/24 09:52:37;;;;;;;7.50;3.88;;;;;;;16.63;47.44;95383.47;5063647;28;20037;-68
2022/09/24 09:55:05;;;;;;;9.93;4.33;;;;;;;16.75;44.95;95383.28;5060418;28;20049;-67
2022/09/24 09:57:34;;;;;;;5.75;3.28;;;;;;;16.90;45.30;95382.59;5063632;28;20811;-68
2022/09/24 10:00:02;;;;;;;7.72;4.03;;;;;;;16.96;43.05;95382.34;5065067;28;20734;-68
2022/09/24 10:02:42;;;;;;;12.13;4.10;;;;;;;17.08;43.67;95376.06;5078734;27;20076;-76
2022/09/24 10:05:24;;;;;;;5.43;3.80;;;;;;;17.16;43.28;95371.09;5091912;28;20038;-76
2022/09/24 10:07:56;;;;;;;9.23;3.10;;;;;;;17.30;42.11;95363.50;5086738;28;20550;-70
2022/09/24 10:10:25;;;;;;;5.07;3.38;;;;;;;17.14;43.16;95362.69;5084052;28;20539;-71
2022/09/24 10:13:08;;;;;;;8.82;3.53;;;;;;;17.18;41.59;95352.44;5085172;28;20047;-71
2022/09/24 10:15:54;;;;;;;7.22;3.28;;;;;;;17.07;41.81;95348.16;5084045;28;20035;-69
2022/09/24 10:18:33;;;;;;;6.22;4.22;;;;;;;17.25;41.42;95350.34;5105131;27;20035;-71
2022/09/24 10:21:03;;;;;;;4.88;3.30;;;;;;;17.46;40.02;95353.78;5100884;27;20044;-68
2022/09/24 10:23:46;;;;;;;7.00;2.75;;;;;;;17.67;39.02;95354.59;5101781;28;20043;-69
2022/09/24 10:26:13;;;;;;;7.30;3.13;;;;;;;17.65;40.12;95335.66;5101426;27;20042;-69
2022/09/24 10:31:36;;;;;;;3.83;3.42;;;;;;;17.86;38.72;95356.75;5100126;28;20298;-67
2022/09/24 10:34:17;;;;;;;5.15;2.72;;;;;;;17.78;39.85;95356.19;5102871;27;20048;-73
2022/09/24 10:36:53;;;;;;;9.27;3.35;;;;;;;18.11;39.55;95343.56;5064387;28;20182;-73
2022/09/24 10:39:20;;;;;;;5.97;3.33;;;;;;;18.39;38.83;95359.88;5082853;28;20096;-73
2022/09/24 10:41:50;;;;;;;5.53;3.38;;;;;;;18.44;39.70;95351.94;5100460;28;20505;-72
2022/09/24 10:44:19;;;;;;;7.35;4.07;;;;;;;18.59;38.84;95355.59;5100470;28;20164;-72
2022/09/24 10:47:09;;;;;;;5.80;3.35;;;;;;;18.51;38.99;95341.09;5101868;28;20051;-71
2022/09/24 10:49:42;;;;;;;6.93;3.60;;;;;;;18.77;40.36;95333.13;5104137;27;20512;-72
2022/09/24 10:52:43;;;;;;;4.50;3.20;;;;;;;18.84;38.70;95344.97;5101173;28;20042;-73
2022/09/24 10:55:13;;;;;;;7.57;2.67;;;;;;;18.76;38.56;95348.13;5086118;28;20047;-73
2022/09/24 10:57:50;;;;;;;6.50;3.42;;;;;;;19.18;37.79;95346.94;5099850;27;20085;-73
2022/09/24 11:00:23;;;;;;;7.10;3.35;;;;;;;19.27;37.92;95329.44;5085115;28;20043;-73
2022/09/24 11:02:59;;;;;;;6.90;4.18;;;;;;;19.60;36.82;95345.59;5104700;27;20120;-73
2022/09/24 11:05:34;;;;;;;4.22;3.20;;;;;;;19.92;36.21;95325.84;5073239;27;20432;-73
2022/09/24 11:08:39;;;;;;;3.50;2.58;;;;;;;19.99;35.48;95331.59;5085837;28;20040;-73
2022/09/24 11:11:18;;;;;;;3.67;2.60;;;;;;;19.76;33.89;95332.31;5081627;28;20508;-73
2022/09/24 11:13:57;;;;;;;4.38;2.72;;;;;;;19.70;34.96;95350.06;5082493;28;20517;-74
2022/09/24 11:16:43;;;;;;;6.03;2.95;;;;;;;19.60;33.85;95345.59;5102620;27;20074;-73
2022/09/24 11:19:45;;;;;;;3.78;2.63;;;;;;;19.88;33.15;95324.84;5082927;28;20085;-73
2022/09/24 11:22:18;;;;;;;3.13;2.25;;;;;;;20.10;33.20;95326.22;5088715;28;20045;-73
2022/09/24 11:25:17;;;;;;;3.38;2.45;;;;;;;20.02;33.20;95331.06;5104148;27;20048;-74
2022/09/24 11:27:52;;;;;;;6.20;2.83;;;;;;;20.04;32.86;95334.19;5082248;28;20039;-73
2022/09/24 11:30:29;;;;;;;3.38;2.58;;;;;;;20.22;32.28;95329.25;5108483;27;20116;-74
2022/09/24 11:33:11;;;;;;;3.67;2.45;;;;;;;20.21;32.15;95325.06;5099295;28;20042;-74
2022/09/24 11:36:04;;;;;;;2.85;2.28;;;;;;;20.48;31.72;95321.09;5080836;28;20146;-74
2022/09/24 11:39:02;;;;;;;5.03;2.60;;;;;;;20.81;30.14;95314.91;5099675;28;20059;-74
2022/09/24 11:41:48;;;;;;;7.15;2.70;;;;;;;20.92;29.06;95320.06;5081489;28;20516;-70
2022/09/24 11:44:27;;;;;;;3.80;2.33;;;;;;;20.93;28.92;95300.47;5080678;28;20044;-73
2022/09/24 11:47:05;;;;;;;2.92;2.10;;;;;;;20.98;28.96;95314.41;5080982;28;20839;-73
2022/09/24 11:50:00;;;;;;;3.92;2.58;;;;;;;21.22;29.40;95308.28;5081925;28;20513;-74
2022/09/24 11:52:34;;;;;;;2.70;2.13;;;;;;;21.28;27.49;95306.34;5082530;28;20471;-74
2022/09/24 11:55:30;;;;;;;4.88;2.83;;;;;;;21.00;28.53;95308.84;5098070;28;20044;-74
2022/09/24 11:58:09;;;;;;;4.05;1.92;;;;;;;20.93;28.05;95316.34;5098276;28;20039;-74
2022/09/24 12:00:42;;;;;;;3.33;2.05;;;;;;;20.99;28.02;95302.78;5082349;28;20093;-73
2022/09/24 12:03:22;;;;;;;2.78;2.03;;;;;;;21.17;27.85;95284.50;5079330;28;20117;-76
2022/09/24 12:05:59;;;;;;;;;;;;;;;21.85;26.79;95288.53;5100128;28;20048;-78